AUA2AC EDDM-LOWW
Flight info
| Callsign | AUA2AC |
|---|---|
| Flight time | 0h 49m |
| Altitude | 25000 |
| Route | BIBAG3S/26L BIBAG Q104 AKIMA DCT MASUR MASUR3W |
| Aircraft | A20N/M-SDE2E3FGHIRWXY/LB1 |
Departure
| Time | 2026-05-06 18:25 |
|---|---|
| Airport | Munich Airport (EDDM) |
Arrival
| Time | 2026-05-06 19:14 |
|---|---|
| Airport | Vienna International Airport (LOWW) |
| Time | Latitude | Longitude | Altitude | Speed | Heading |
|---|---|---|---|---|---|
| 2026-05-06 17:55 | 48.35382 | 11.80020 | 1467 ft | 0 kts | 263° |
| 2026-05-06 18:15 | 48.35383 | 11.80029 | 1464 ft | 2 kts | 261° |
| 2026-05-06 18:15 | 48.35387 | 11.80057 | 1458 ft | 3 kts | 247° |
| 2026-05-06 18:16 | 48.35396 | 11.80084 | 1463 ft | 3 kts | 229° |
| 2026-05-06 18:16 | 48.35411 | 11.80103 | 1456 ft | 3 kts | 203° |
| 2026-05-06 18:16 | 48.35427 | 11.80110 | 1461 ft | 2 kts | 171° |
| 2026-05-06 18:16 | 48.35430 | 11.80109 | 1461 ft | 1 kts | 169° |
| 2026-05-06 18:19 | 48.35423 | 11.80111 | 1460 ft | 3 kts | 169° |
| 2026-05-06 18:19 | 48.35401 | 11.80134 | 1457 ft | 5 kts | 119° |
| 2026-05-06 18:19 | 48.35377 | 11.80190 | 1465 ft | 8 kts | 145° |
| 2026-05-06 18:20 | 48.35316 | 11.80204 | 1464 ft | 10 kts | 176° |
| 2026-05-06 18:20 | 48.35236 | 11.80216 | 1464 ft | 13 kts | 174° |
| 2026-05-06 18:20 | 48.35141 | 11.80232 | 1462 ft | 13 kts | 176° |
| 2026-05-06 18:20 | 48.35092 | 11.80155 | 1461 ft | 11 kts | 275° |
| 2026-05-06 18:21 | 48.35087 | 11.80041 | 1462 ft | 11 kts | 263° |
| 2026-05-06 18:21 | 48.35076 | 11.79920 | 1467 ft | 12 kts | 262° |
| 2026-05-06 18:21 | 48.35067 | 11.79792 | 1467 ft | 13 kts | 265° |
| 2026-05-06 18:21 | 48.35035 | 11.79674 | 1463 ft | 12 kts | 214° |
| 2026-05-06 18:22 | 48.34950 | 11.79678 | 1464 ft | 14 kts | 173° |
| 2026-05-06 18:22 | 48.34849 | 11.79695 | 1464 ft | 16 kts | 172° |
| 2026-05-06 18:22 | 48.34809 | 11.79817 | 1462 ft | 15 kts | 77° |
| 2026-05-06 18:22 | 48.34821 | 11.79989 | 1467 ft | 18 kts | 85° |
| 2026-05-06 18:23 | 48.34815 | 11.80145 | 1463 ft | 15 kts | 119° |
| 2026-05-06 18:23 | 48.34737 | 11.80246 | 1464 ft | 15 kts | 163° |
| 2026-05-06 18:23 | 48.34622 | 11.80261 | 1460 ft | 18 kts | 173° |
| 2026-05-06 18:23 | 48.34500 | 11.80276 | 1462 ft | 15 kts | 192° |
| 2026-05-06 18:24 | 48.34456 | 11.80183 | 1466 ft | 0 kts | 265° |
| 2026-05-06 18:24 | 48.34455 | 11.80169 | 1468 ft | 4 kts | 265° |
| 2026-05-06 18:24 | 48.34429 | 11.79821 | 1470 ft | 66 kts | 263° |
| 2026-05-06 18:24 | 48.34353 | 11.78843 | 1464 ft | 119 kts | 263° |
| 2026-05-06 18:25 | 48.34237 | 11.77450 | 1640 ft | 143 kts | 262° |
| 2026-05-06 18:25 | 48.34097 | 11.75920 | 2066 ft | 153 kts | 260° |
| 2026-05-06 18:25 | 48.33869 | 11.74334 | 2650 ft | 157 kts | 254° |
| 2026-05-06 18:25 | 48.33388 | 11.72858 | 3271 ft | 160 kts | 237° |
| 2026-05-06 18:26 | 48.32526 | 11.71751 | 3839 ft | 170 kts | 218° |
| 2026-05-06 18:26 | 48.31337 | 11.71074 | 4136 ft | 202 kts | 195° |
| 2026-05-06 18:26 | 48.29871 | 11.70856 | 4668 ft | 220 kts | 188° |
| 2026-05-06 18:26 | 48.28330 | 11.71259 | 5488 ft | 234 kts | 161° |
| 2026-05-06 18:27 | 48.26955 | 11.72543 | 6480 ft | 240 kts | 150° |
| 2026-05-06 18:27 | 48.25527 | 11.74031 | 7098 ft | 260 kts | 150° |
| 2026-05-06 18:27 | 48.23982 | 11.75615 | 7704 ft | 277 kts | 150° |
| 2026-05-06 18:27 | 48.22372 | 11.77259 | 8634 ft | 280 kts | 150° |
| 2026-05-06 18:28 | 48.20757 | 11.78905 | 9723 ft | 281 kts | 150° |
| 2026-05-06 18:28 | 48.19249 | 11.80814 | 10633 ft | 291 kts | 133° |
| 2026-05-06 18:28 | 48.18331 | 11.83576 | 11491 ft | 305 kts | 107° |
| 2026-05-06 18:28 | 48.18204 | 11.86799 | 12368 ft | 316 kts | 89° |
| 2026-05-06 18:29 | 48.18450 | 11.90100 | 13239 ft | 321 kts | 85° |
| 2026-05-06 18:29 | 48.18769 | 11.93431 | 14059 ft | 325 kts | 85° |
| 2026-05-06 18:29 | 48.19077 | 11.96800 | 14840 ft | 328 kts | 85° |
| 2026-05-06 18:29 | 48.19358 | 12.00221 | 15610 ft | 332 kts | 86° |
| 2026-05-06 18:30 | 48.19616 | 12.03662 | 16397 ft | 334 kts | 86° |
| 2026-05-06 18:30 | 48.19866 | 12.07171 | 17053 ft | 342 kts | 87° |
| 2026-05-06 18:30 | 48.20114 | 12.10745 | 17777 ft | 347 kts | 87° |
| 2026-05-06 18:30 | 48.20364 | 12.14360 | 18447 ft | 351 kts | 87° |
| 2026-05-06 18:31 | 48.20615 | 12.18023 | 19021 ft | 354 kts | 87° |
| 2026-05-06 18:31 | 48.20868 | 12.21709 | 19728 ft | 356 kts | 87° |
| 2026-05-06 18:31 | 48.21121 | 12.25423 | 20360 ft | 360 kts | 87° |
| 2026-05-06 18:31 | 48.21377 | 12.29184 | 20986 ft | 364 kts | 87° |
| 2026-05-06 18:32 | 48.21633 | 12.32979 | 21614 ft | 368 kts | 87° |
| 2026-05-06 18:32 | 48.21891 | 12.36811 | 22230 ft | 371 kts | 88° |
| 2026-05-06 18:32 | 48.22147 | 12.40643 | 22831 ft | 375 kts | 88° |
| 2026-05-06 18:32 | 48.22407 | 12.44553 | 23418 ft | 379 kts | 88° |
| 2026-05-06 18:33 | 48.22669 | 12.48499 | 23921 ft | 382 kts | 88° |
| 2026-05-06 18:33 | 48.22955 | 12.52475 | 24407 ft | 387 kts | 83° |
| 2026-05-06 18:33 | 48.23809 | 12.56350 | 24704 ft | 396 kts | 63° |
| 2026-05-06 18:33 | 48.25299 | 12.59878 | 24801 ft | 408 kts | 62° |
| 2026-05-06 18:34 | 48.26458 | 12.63835 | 24800 ft | 423 kts | 73° |
| 2026-05-06 18:34 | 48.27344 | 12.68143 | 24797 ft | 440 kts | 76° |
| 2026-05-06 18:34 | 48.28217 | 12.72604 | 24797 ft | 448 kts | 75° |
| 2026-05-06 18:34 | 48.29144 | 12.77084 | 24796 ft | 447 kts | 74° |
| 2026-05-06 18:35 | 48.30113 | 12.81521 | 24795 ft | 447 kts | 73° |
| 2026-05-06 18:35 | 48.31109 | 12.85947 | 24796 ft | 447 kts | 73° |
| 2026-05-06 18:35 | 48.32104 | 12.90318 | 24797 ft | 447 kts | 73° |
| 2026-05-06 18:35 | 48.33121 | 12.94766 | 24796 ft | 447 kts | 73° |
| 2026-05-06 18:36 | 48.34126 | 12.99169 | 24759 ft | 450 kts | 73° |
| 2026-05-06 18:36 | 48.35167 | 13.03742 | 24770 ft | 457 kts | 73° |
| 2026-05-06 18:36 | 48.36178 | 13.08195 | 24768 ft | 455 kts | 73° |
| 2026-05-06 18:36 | 48.37197 | 13.12696 | 24768 ft | 455 kts | 73° |
| 2026-05-06 18:37 | 48.38215 | 13.17198 | 24767 ft | 455 kts | 73° |
| 2026-05-06 18:37 | 48.38888 | 13.20184 | 24746 ft | 455 kts | 73° |
| 2026-05-06 18:37 | 48.40245 | 13.26215 | 24746 ft | 455 kts | 74° |
| 2026-05-06 18:37 | 48.41120 | 13.30771 | 24735 ft | 452 kts | 81° |
| 2026-05-06 18:38 | 48.41594 | 13.35433 | 24736 ft | 449 kts | 89° |
| 2026-05-06 18:38 | 48.41849 | 13.40124 | 24721 ft | 449 kts | 89° |
| 2026-05-06 18:38 | 48.42115 | 13.44746 | 24721 ft | 449 kts | 89° |
| 2026-05-06 18:38 | 48.42395 | 13.49494 | 24710 ft | 452 kts | 89° |
| 2026-05-06 18:39 | 48.42672 | 13.54220 | 24721 ft | 455 kts | 89° |
| 2026-05-06 18:39 | 48.42943 | 13.58894 | 24709 ft | 453 kts | 89° |
| 2026-05-06 18:39 | 48.43214 | 13.63621 | 24707 ft | 453 kts | 89° |
| 2026-05-06 18:40 | 48.43748 | 13.73082 | 24708 ft | 453 kts | 89° |
| 2026-05-06 18:40 | 48.44012 | 13.77824 | 24691 ft | 453 kts | 89° |
| 2026-05-06 18:40 | 48.44273 | 13.82555 | 24691 ft | 453 kts | 90° |
| 2026-05-06 18:40 | 48.44533 | 13.87277 | 24691 ft | 453 kts | 90° |
| 2026-05-06 18:41 | 48.44791 | 13.92015 | 24695 ft | 454 kts | 90° |
| 2026-05-06 18:41 | 48.45044 | 13.96753 | 24685 ft | 454 kts | 90° |
| 2026-05-06 18:41 | 48.45298 | 14.01494 | 24689 ft | 453 kts | 90° |
| 2026-05-06 18:41 | 48.45552 | 14.06233 | 24689 ft | 453 kts | 90° |
| 2026-05-06 18:42 | 48.45799 | 14.10902 | 24715 ft | 453 kts | 90° |
| 2026-05-06 18:42 | 48.46047 | 14.15625 | 24716 ft | 453 kts | 90° |
| 2026-05-06 18:42 | 48.46293 | 14.20366 | 24716 ft | 453 kts | 90° |
| 2026-05-06 18:42 | 48.46537 | 14.25088 | 24718 ft | 453 kts | 90° |
| 2026-05-06 18:43 | 48.46779 | 14.29821 | 24717 ft | 453 kts | 90° |
| 2026-05-06 18:43 | 48.47018 | 14.34558 | 24713 ft | 452 kts | 90° |
| 2026-05-06 18:43 | 48.47256 | 14.39283 | 24687 ft | 452 kts | 90° |
| 2026-05-06 18:43 | 48.47492 | 14.43980 | 24709 ft | 449 kts | 90° |
| 2026-05-06 18:44 | 48.47725 | 14.48682 | 24706 ft | 450 kts | 90° |
| 2026-05-06 18:44 | 48.47955 | 14.53385 | 24705 ft | 450 kts | 90° |
| 2026-05-06 18:44 | 48.48183 | 14.58092 | 24700 ft | 450 kts | 90° |
| 2026-05-06 18:44 | 48.48409 | 14.62786 | 24701 ft | 450 kts | 90° |
| 2026-05-06 18:45 | 48.48635 | 14.67501 | 24703 ft | 449 kts | 90° |
| 2026-05-06 18:45 | 48.48857 | 14.72187 | 24568 ft | 448 kts | 90° |
| 2026-05-06 18:45 | 48.49077 | 14.76851 | 24298 ft | 444 kts | 91° |
| 2026-05-06 18:45 | 48.49221 | 14.79924 | 24119 ft | 444 kts | 91° |
| 2026-05-06 18:46 | 48.49506 | 14.86125 | 23591 ft | 442 kts | 90° |
| 2026-05-06 18:46 | 48.49716 | 14.90726 | 23100 ft | 437 kts | 90° |
| 2026-05-06 18:46 | 48.49923 | 14.95260 | 22557 ft | 431 kts | 90° |
| 2026-05-06 18:46 | 48.50125 | 14.99732 | 22025 ft | 425 kts | 90° |
| 2026-05-06 18:47 | 48.50321 | 15.04182 | 21500 ft | 424 kts | 90° |
| 2026-05-06 18:47 | 48.50516 | 15.08607 | 20983 ft | 422 kts | 90° |
| 2026-05-06 18:47 | 48.50706 | 15.12945 | 20485 ft | 417 kts | 90° |
| 2026-05-06 18:47 | 48.50894 | 15.17298 | 19983 ft | 415 kts | 90° |
| 2026-05-06 18:48 | 48.51080 | 15.21643 | 19492 ft | 413 kts | 90° |
| 2026-05-06 18:48 | 48.51264 | 15.25938 | 19021 ft | 409 kts | 90° |
| 2026-05-06 18:48 | 48.51445 | 15.30229 | 18523 ft | 409 kts | 90° |
| 2026-05-06 18:48 | 48.51622 | 15.34491 | 18057 ft | 405 kts | 90° |
| 2026-05-06 18:49 | 48.51796 | 15.38700 | 17527 ft | 400 kts | 90° |
| 2026-05-06 18:49 | 48.51952 | 15.42869 | 17003 ft | 394 kts | 92° |
| 2026-05-06 18:49 | 48.51839 | 15.46938 | 16765 ft | 386 kts | 99° |
| 2026-05-06 18:49 | 48.51592 | 15.50996 | 16710 ft | 391 kts | 98° |
| 2026-05-06 18:50 | 48.51365 | 15.55079 | 16708 ft | 390 kts | 98° |
| 2026-05-06 18:50 | 48.51143 | 15.59161 | 16707 ft | 391 kts | 98° |
| 2026-05-06 18:50 | 48.50915 | 15.63249 | 16708 ft | 391 kts | 98° |
| 2026-05-06 18:50 | 48.50687 | 15.67326 | 16709 ft | 389 kts | 98° |
| 2026-05-06 18:51 | 48.50454 | 15.71401 | 16707 ft | 390 kts | 99° |
| 2026-05-06 18:51 | 48.50216 | 15.75471 | 16701 ft | 391 kts | 99° |
| 2026-05-06 18:51 | 48.49976 | 15.79550 | 16706 ft | 390 kts | 99° |
| 2026-05-06 18:51 | 48.49735 | 15.83628 | 16709 ft | 390 kts | 99° |
| 2026-05-06 18:52 | 48.49493 | 15.87694 | 16691 ft | 386 kts | 99° |
| 2026-05-06 18:52 | 48.49261 | 15.91615 | 16591 ft | 375 kts | 99° |
| 2026-05-06 18:52 | 48.49032 | 15.95462 | 16461 ft | 361 kts | 99° |
| 2026-05-06 18:52 | 48.49006 | 15.99187 | 16328 ft | 353 kts | 84° |
| 2026-05-06 18:53 | 48.49797 | 16.02640 | 16150 ft | 348 kts | 61° |
| 2026-05-06 18:53 | 48.51160 | 16.05633 | 15774 ft | 345 kts | 55° |
| 2026-05-06 18:53 | 48.52572 | 16.08544 | 15396 ft | 342 kts | 55° |
| 2026-05-06 18:53 | 48.53929 | 16.11471 | 14999 ft | 339 kts | 62° |
| 2026-05-06 18:54 | 48.54965 | 16.14621 | 14635 ft | 335 kts | 59° |
| 2026-05-06 18:54 | 48.56534 | 16.17200 | 14253 ft | 334 kts | 35° |
| 2026-05-06 18:54 | 48.57877 | 16.18324 | 13985 ft | 333 kts | 19° |
| 2026-05-06 18:54 | 48.60122 | 16.18935 | 13592 ft | 327 kts | 355° |
| 2026-05-06 18:55 | 48.62301 | 16.18193 | 13144 ft | 319 kts | 331° |
| 2026-05-06 18:55 | 48.64051 | 16.16253 | 12702 ft | 309 kts | 306° |
| 2026-05-06 18:55 | 48.65077 | 16.13497 | 12269 ft | 297 kts | 282° |
| 2026-05-06 18:55 | 48.65221 | 16.10461 | 11847 ft | 287 kts | 257° |
| 2026-05-06 18:56 | 48.64484 | 16.07728 | 11431 ft | 280 kts | 231° |
| 2026-05-06 18:56 | 48.63034 | 16.05832 | 10996 ft | 277 kts | 206° |
| 2026-05-06 18:56 | 48.61170 | 16.05155 | 10549 ft | 279 kts | 181° |
| 2026-05-06 18:56 | 48.59252 | 16.05634 | 10129 ft | 282 kts | 166° |
| 2026-05-06 18:57 | 48.57400 | 16.06616 | 9734 ft | 282 kts | 161° |
| 2026-05-06 18:57 | 48.55586 | 16.07724 | 9327 ft | 281 kts | 161° |
| 2026-05-06 18:57 | 48.53777 | 16.08824 | 8907 ft | 279 kts | 161° |
| 2026-05-06 18:57 | 48.51972 | 16.09880 | 8494 ft | 278 kts | 162° |
| 2026-05-06 18:58 | 48.50165 | 16.10902 | 8086 ft | 276 kts | 162° |
| 2026-05-06 18:58 | 48.48367 | 16.11897 | 7680 ft | 275 kts | 163° |
| 2026-05-06 18:58 | 48.46573 | 16.12882 | 7292 ft | 273 kts | 163° |
| 2026-05-06 18:58 | 48.44789 | 16.13859 | 6897 ft | 272 kts | 163° |
| 2026-05-06 18:59 | 48.43013 | 16.14829 | 6561 ft | 269 kts | 163° |
| 2026-05-06 18:59 | 48.41294 | 16.15775 | 6446 ft | 257 kts | 163° |
| 2026-05-06 18:59 | 48.39652 | 16.16676 | 6350 ft | 245 kts | 165° |
| 2026-05-06 18:59 | 48.38103 | 16.17530 | 6200 ft | 237 kts | 165° |
| 2026-05-06 19:00 | 48.36537 | 16.18388 | 5878 ft | 236 kts | 165° |
| 2026-05-06 19:00 | 48.35011 | 16.19224 | 5757 ft | 233 kts | 165° |
| 2026-05-06 19:00 | 48.33487 | 16.20052 | 5736 ft | 237 kts | 165° |
| 2026-05-06 19:00 | 48.31954 | 16.20921 | 5735 ft | 237 kts | 159° |
| 2026-05-06 19:01 | 48.30688 | 16.22583 | 5739 ft | 251 kts | 128° |
| 2026-05-06 19:01 | 48.30113 | 16.25080 | 5741 ft | 257 kts | 97° |
| 2026-05-06 19:01 | 48.30415 | 16.27656 | 5739 ft | 247 kts | 63° |
| 2026-05-06 19:01 | 48.31492 | 16.29544 | 5769 ft | 239 kts | 29° |
| 2026-05-06 19:02 | 48.33049 | 16.30385 | 6066 ft | 237 kts | 2° |
| 2026-05-06 19:02 | 48.35026 | 16.30635 | 5925 ft | 245 kts | 359° |
| 2026-05-06 19:02 | 48.36715 | 16.30823 | 5740 ft | 239 kts | 2° |
| 2026-05-06 19:02 | 48.38329 | 16.31145 | 5736 ft | 232 kts | 5° |
| 2026-05-06 19:03 | 48.39947 | 16.31587 | 5736 ft | 239 kts | 8° |
| 2026-05-06 19:03 | 48.41560 | 16.31973 | 5628 ft | 231 kts | 356° |
| 2026-05-06 19:03 | 48.43124 | 16.31640 | 5325 ft | 226 kts | 338° |
| 2026-05-06 19:03 | 48.44633 | 16.30964 | 4968 ft | 227 kts | 339° |
| 2026-05-06 19:04 | 48.46175 | 16.30485 | 4760 ft | 232 kts | 359° |
| 2026-05-06 19:04 | 48.47750 | 16.31182 | 4737 ft | 242 kts | 33° |
| 2026-05-06 19:04 | 48.48871 | 16.32993 | 4732 ft | 237 kts | 66° |
| 2026-05-06 19:04 | 48.49196 | 16.35369 | 4734 ft | 233 kts | 100° |
| 2026-05-06 19:05 | 48.48693 | 16.37547 | 4732 ft | 218 kts | 133° |
| 2026-05-06 19:05 | 48.47615 | 16.39122 | 4733 ft | 217 kts | 145° |
| 2026-05-06 19:05 | 48.46471 | 16.40592 | 4740 ft | 215 kts | 145° |
| 2026-05-06 19:05 | 48.45332 | 16.42057 | 4730 ft | 216 kts | 145° |
| 2026-05-06 19:06 | 48.44208 | 16.43438 | 4751 ft | 197 kts | 151° |
| 2026-05-06 19:06 | 48.43061 | 16.44403 | 4750 ft | 187 kts | 162° |
| 2026-05-06 19:06 | 48.41843 | 16.45071 | 4750 ft | 184 kts | 167° |
| 2026-05-06 19:06 | 48.40629 | 16.45615 | 4754 ft | 182 kts | 169° |
| 2026-05-06 19:07 | 48.39395 | 16.46140 | 4750 ft | 185 kts | 170° |
| 2026-05-06 19:07 | 48.38557 | 16.46497 | 4748 ft | 185 kts | 169° |
| 2026-05-06 19:07 | 48.36915 | 16.47202 | 4752 ft | 185 kts | 169° |
| 2026-05-06 19:07 | 48.35670 | 16.47735 | 4756 ft | 187 kts | 169° |
| 2026-05-06 19:08 | 48.34412 | 16.48272 | 4759 ft | 188 kts | 169° |
| 2026-05-06 19:08 | 48.33159 | 16.48809 | 4749 ft | 187 kts | 170° |
| 2026-05-06 19:08 | 48.31913 | 16.49342 | 4647 ft | 186 kts | 171° |
| 2026-05-06 19:08 | 48.30668 | 16.49873 | 4406 ft | 185 kts | 171° |
| 2026-05-06 19:09 | 48.29434 | 16.50399 | 4159 ft | 183 kts | 170° |
| 2026-05-06 19:09 | 48.28225 | 16.50915 | 3900 ft | 179 kts | 170° |
| 2026-05-06 19:09 | 48.27061 | 16.51415 | 3672 ft | 169 kts | 172° |
| 2026-05-06 19:09 | 48.25957 | 16.51884 | 3448 ft | 160 kts | 172° |
| 2026-05-06 19:10 | 48.24878 | 16.52338 | 3241 ft | 163 kts | 172° |
| 2026-05-06 19:10 | 48.23788 | 16.52804 | 3029 ft | 162 kts | 171° |
| 2026-05-06 19:10 | 48.22735 | 16.53253 | 2818 ft | 155 kts | 171° |
| 2026-05-06 19:10 | 48.21737 | 16.53679 | 2636 ft | 141 kts | 171° |
| 2026-05-06 19:11 | 48.20852 | 16.54058 | 2452 ft | 124 kts | 171° |
| 2026-05-06 19:11 | 48.20068 | 16.54390 | 2295 ft | 111 kts | 172° |
| 2026-05-06 19:11 | 48.19369 | 16.54686 | 2151 ft | 104 kts | 172° |
| 2026-05-06 19:11 | 48.18651 | 16.54985 | 2020 ft | 107 kts | 172° |
| 2026-05-06 19:12 | 48.17938 | 16.55289 | 1873 ft | 106 kts | 172° |
| 2026-05-06 19:12 | 48.17225 | 16.55592 | 1733 ft | 107 kts | 171° |
| 2026-05-06 19:12 | 48.16508 | 16.55895 | 1593 ft | 107 kts | 171° |
| 2026-05-06 19:12 | 48.15780 | 16.56207 | 1448 ft | 110 kts | 169° |
| 2026-05-06 19:13 | 48.15042 | 16.56519 | 1301 ft | 110 kts | 167° |
| 2026-05-06 19:13 | 48.14275 | 16.56843 | 1164 ft | 120 kts | 166° |
| 2026-05-06 19:13 | 48.13482 | 16.57184 | 956 ft | 117 kts | 166° |
| 2026-05-06 19:13 | 48.12700 | 16.57509 | 749 ft | 122 kts | 166° |
| 2026-05-06 19:14 | 48.11863 | 16.57863 | 629 ft | 120 kts | 165° |
| 2026-05-06 19:14 | 48.11159 | 16.58163 | 620 ft | 81 kts | 164° |
| 2026-05-06 19:14 | 48.10787 | 16.58318 | 613 ft | 37 kts | 165° |
| 2026-05-06 19:14 | 48.10540 | 16.58424 | 612 ft | 36 kts | 165° |
| 2026-05-06 19:15 | 48.10337 | 16.58465 | 611 ft | 26 kts | 184° |
| 2026-05-06 19:15 | 48.10172 | 16.58416 | 621 ft | 12 kts | 194° |
| 2026-05-06 19:15 | 48.10131 | 16.58383 | 620 ft | 9 kts | 227° |
| 2026-05-06 19:15 | 48.10088 | 16.58267 | 627 ft | 14 kts | 251° |
| 2026-05-06 19:16 | 48.10079 | 16.58199 | 625 ft | 0 kts | 289° |
| 2026-05-06 19:16 | 48.10109 | 16.58188 | 616 ft | 12 kts | 350° |
| 2026-05-06 19:16 | 48.10209 | 16.58148 | 619 ft | 18 kts | 343° |
| 2026-05-06 19:16 | 48.10319 | 16.58101 | 626 ft | 11 kts | 345° |
| 2026-05-06 19:17 | 48.10366 | 16.58081 | 624 ft | 1 kts | 344° |
| 2026-05-06 19:17 | 48.10369 | 16.58080 | 623 ft | 0 kts | 344° |
| 2026-05-06 19:19 | 48.10373 | 16.58078 | 621 ft | 2 kts | 344° |
| 2026-05-06 19:19 | 48.10410 | 16.58063 | 628 ft | 10 kts | 344° |
| 2026-05-06 19:20 | 48.10510 | 16.58021 | 624 ft | 19 kts | 344° |
| 2026-05-06 19:20 | 48.10647 | 16.57963 | 627 ft | 19 kts | 345° |
| 2026-05-06 19:20 | 48.10778 | 16.57906 | 620 ft | 18 kts | 343° |
| 2026-05-06 19:20 | 48.10912 | 16.57851 | 626 ft | 21 kts | 345° |
| 2026-05-06 19:21 | 48.11067 | 16.57785 | 618 ft | 25 kts | 342° |
| 2026-05-06 19:21 | 48.11201 | 16.57726 | 621 ft | 14 kts | 343° |
| 2026-05-06 19:21 | 48.11316 | 16.57678 | 618 ft | 20 kts | 345° |
| 2026-05-06 19:21 | 48.11459 | 16.57619 | 623 ft | 22 kts | 344° |
| 2026-05-06 19:22 | 48.11611 | 16.57554 | 614 ft | 23 kts | 343° |
| 2026-05-06 19:22 | 48.11738 | 16.57502 | 611 ft | 20 kts | 345° |
| 2026-05-06 19:22 | 48.11813 | 16.57433 | 602 ft | 12 kts | 285° |
| 2026-05-06 19:22 | 48.11820 | 16.57308 | 602 ft | 12 kts | 310° |
| 2026-05-06 19:23 | 48.11874 | 16.57196 | 601 ft | 15 kts | 319° |
| 2026-05-06 19:23 | 48.11934 | 16.57042 | 599 ft | 19 kts | 296° |
| 2026-05-06 19:23 | 48.11994 | 16.56857 | 596 ft | 17 kts | 290° |
| 2026-05-06 19:23 | 48.11956 | 16.56742 | 597 ft | 10 kts | 202° |
| 2026-05-06 19:24 | 48.11933 | 16.56728 | 598 ft | 1 kts | 201° |
| 2026-05-06 19:24 | 48.11931 | 16.56726 | 598 ft | 0 kts | 201° |
| 2026-05-06 19:24 | 48.11915 | 16.56718 | 599 ft | 0 kts | 199° |